sensor_id;sensor_type;location;lat;lon;timestamp;pressure;altitude;pressure_sealevel;temperature;humidity
9423;BME280;65863;49.506;10.400;2023-02-10T00:00:55;99806.28;;;-7.78;87.85
9423;BME280;65863;49.506;10.400;2023-02-10T00:03:39;99796.88;;;-7.91;87.63
9423;BME280;65863;49.506;10.400;2023-02-10T00:06:24;99807.81;;;-7.77;87.98
9423;BME280;65863;49.506;10.400;2023-02-10T00:09:12;99807.03;;;-7.85;87.59
9423;BME280;65863;49.506;10.400;2023-02-10T00:11:57;99788.25;;;-8.04;87.93
9423;BME280;65863;49.506;10.400;2023-02-10T00:14:43;99806.59;;;-7.98;87.52
9423;BME280;65863;49.506;10.400;2023-02-10T00:17:27;99801.91;;;-7.97;87.92
9423;BME280;65863;49.506;10.400;2023-02-10T00:20:11;99840.13;;;-7.83;87.94
9423;BME280;65863;49.506;10.400;2023-02-10T00:22:56;99803.44;;;-8.10;87.62
9423;BME280;65863;49.506;10.400;2023-02-10T00:25:40;99793.66;;;-8.15;87.97
9423;BME280;65863;49.506;10.400;2023-02-10T00:28:24;99801.84;;;-8.11;87.55
9423;BME280;65863;49.506;10.400;2023-02-10T00:31:14;99773.31;;;-8.36;87.63
9423;BME280;65863;49.506;10.400;2023-02-10T00:33:58;99825.25;;;-8.07;87.37
9423;BME280;65863;49.506;10.400;2023-02-10T00:36:42;99824.56;;;-7.89;87.65
9423;BME280;65863;49.506;10.400;2023-02-10T00:39:26;99788.53;;;-8.35;87.43
9423;BME280;65863;49.506;10.400;2023-02-10T00:42:10;99811.91;;;-8.26;87.39
9423;BME280;65863;49.506;10.400;2023-02-10T00:44:55;99850.19;;;-8.01;87.05
9423;BME280;65863;49.506;10.400;2023-02-10T00:47:39;99865.00;;;-7.99;87.23
9423;BME280;65863;49.506;10.400;2023-02-10T00:50:23;99830.97;;;-8.26;87.40
9423;BME280;65863;49.506;10.400;2023-02-10T00:53:08;99836.47;;;-8.23;87.46
9423;BME280;65863;49.506;10.400;2023-02-10T00:55:52;99830.56;;;-8.32;87.26
9423;BME280;65863;49.506;10.400;2023-02-10T00:58:36;99856.81;;;-8.02;87.12
9423;BME280;65863;49.506;10.400;2023-02-10T01:01:21;99828.25;;;-8.30;87.49
9423;BME280;65863;49.506;10.400;2023-02-10T01:04:05;99851.31;;;-8.13;86.96
9423;BME280;65863;49.506;10.400;2023-02-10T01:06:49;99861.78;;;-8.15;87.13
9423;BME280;65863;49.506;10.400;2023-02-10T01:09:33;99839.53;;;-8.32;86.98
9423;BME280;65863;49.506;10.400;2023-02-10T01:12:17;99838.72;;;-8.36;87.15
9423;BME280;65863;49.506;10.400;2023-02-10T01:15:01;99852.44;;;-8.21;87.29
9423;BME280;65863;49.506;10.400;2023-02-10T01:17:45;99861.75;;;-8.26;87.01
9423;BME280;65863;49.506;10.400;2023-02-10T01:20:30;99843.34;;;-8.47;86.96
9423;BME280;65863;49.506;10.400;2023-02-10T01:23:14;99861.72;;;-8.33;86.93
9423;BME280;65863;49.506;10.400;2023-02-10T01:26:01;99864.09;;;-8.24;87.48
9423;BME280;65863;49.506;10.400;2023-02-10T01:28:45;99887.97;;;-8.00;87.11
9423;BME280;65863;49.506;10.400;2023-02-10T01:31:29;99852.69;;;-8.41;86.79
9423;BME280;65863;49.506;10.400;2023-02-10T01:34:14;99842.94;;;-8.49;86.60
9423;BME280;65863;49.506;10.400;2023-02-10T01:36:58;99859.03;;;-8.26;86.55
9423;BME280;65863;49.506;10.400;2023-02-10T01:39:42;99839.50;;;-8.35;86.84
9423;BME280;65863;49.506;10.400;2023-02-10T01:42:26;99877.41;;;-8.08;86.82
9423;BME280;65863;49.506;10.400;2023-02-10T01:45:35;99888.41;;;-7.98;87.11
9423;BME280;65863;49.506;10.400;2023-02-10T01:48:22;99862.56;;;-8.22;86.73
9423;BME280;65863;49.506;10.400;2023-02-10T01:51:06;99858.66;;;-8.24;86.86
9423;BME280;65863;49.506;10.400;2023-02-10T01:53:52;99857.50;;;-8.23;86.97
9423;BME280;65863;49.506;10.400;2023-02-10T01:56:36;99847.31;;;-8.30;87.09
9423;BME280;65863;49.506;10.400;2023-02-10T01:59:22;99869.16;;;-8.23;86.83
9423;BME280;65863;49.506;10.400;2023-02-10T02:02:09;99847.66;;;-8.39;86.81
9423;BME280;65863;49.506;10.400;2023-02-10T02:04:59;99864.09;;;-8.21;87.02
9423;BME280;65863;49.506;10.400;2023-02-10T02:07:45;99868.34;;;-8.31;86.94
9423;BME280;65863;49.506;10.400;2023-02-10T02:13:56;99857.34;;;-8.45;86.76
9423;BME280;65863;49.506;10.400;2023-02-10T02:16:59;99843.66;;;-8.59;86.71
9423;BME280;65863;49.506;10.400;2023-02-10T02:29:14;99890.91;;;-8.30;86.36
9423;BME280;65863;49.506;10.400;2023-02-10T02:32:22;99875.22;;;-8.51;86.62
9423;BME280;65863;49.506;10.400;2023-02-10T02:35:09;99893.22;;;-8.32;86.45
9423;BME280;65863;49.506;10.400;2023-02-10T02:37:56;99833.03;;;-8.75;86.37
9423;BME280;65863;49.506;10.400;2023-02-10T02:40:40;99869.72;;;-8.58;86.78
9423;BME280;65863;49.506;10.400;2023-02-10T02:43:24;99890.00;;;-8.56;86.56
9423;BME280;65863;49.506;10.400;2023-02-10T02:46:26;99905.25;;;-8.48;86.63
9423;BME280;65863;49.506;10.400;2023-02-10T02:49:26;99865.03;;;-8.61;86.46
9423;BME280;65863;49.506;10.400;2023-02-10T02:52:24;99841.16;;;-8.79;86.73
9423;BME280;65863;49.506;10.400;2023-02-10T02:55:26;99818.03;;;-9.03;86.69
9423;BME280;65863;49.506;10.400;2023-02-10T02:58:26;99889.63;;;-8.51;86.33
9423;BME280;65863;49.506;10.400;2023-02-10T03:01:17;99894.34;;;-8.48;86.40
9423;BME280;65863;49.506;10.400;2023-02-10T03:04:06;99921.22;;;-8.39;86.41
9423;BME280;65863;49.506;10.400;2023-02-10T03:06:51;99860.66;;;-8.77;85.98
9423;BME280;65863;49.506;10.400;2023-02-10T03:09:35;99855.19;;;-8.77;86.17
9423;BME280;65863;49.506;10.400;2023-02-10T03:12:19;99870.03;;;-8.71;86.24
9423;BME280;65863;49.506;10.400;2023-02-10T03:15:04;99863.69;;;-8.86;86.39
9423;BME280;65863;49.506;10.400;2023-02-10T03:17:48;99836.75;;;-8.94;86.43
9423;BME280;65863;49.506;10.400;2023-02-10T03:20:31;99903.28;;;-8.47;86.27
9423;BME280;65863;49.506;10.400;2023-02-10T03:23:16;99857.53;;;-8.75;86.08
9423;BME280;65863;49.506;10.400;2023-02-10T03:26:00;99903.00;;;-8.27;86.75
9423;BME280;65863;49.506;10.400;2023-02-10T03:28:44;99845.56;;;-8.67;86.38
9423;BME280;65863;49.506;10.400;2023-02-10T03:31:28;99850.63;;;-8.62;86.39
9423;BME280;65863;49.506;10.400;2023-02-10T03:34:12;99862.38;;;-8.51;87.02
9423;BME280;65863;49.506;10.400;2023-02-10T03:36:57;99852.19;;;-8.61;86.88
9423;BME280;65863;49.506;10.400;2023-02-10T03:39:41;99895.19;;;-8.33;86.83
9423;BME280;65863;49.506;10.400;2023-02-10T03:42:25;99892.03;;;-8.42;86.66
9423;BME280;65863;49.506;10.400;2023-02-10T03:45:09;99901.59;;;-8.62;86.68
9423;BME280;65863;49.506;10.400;2023-02-10T03:47:53;99838.97;;;-9.11;86.36
9423;BME280;65863;49.506;10.400;2023-02-10T03:50:38;99918.31;;;-8.64;86.43
9423;BME280;65863;49.506;10.400;2023-02-10T03:53:21;99887.38;;;-8.90;86.18
9423;BME280;65863;49.506;10.400;2023-02-10T03:56:06;99915.16;;;-8.70;86.39
9423;BME280;65863;49.506;10.400;2023-02-10T03:58:50;99918.66;;;-8.73;86.34
9423;BME280;65863;49.506;10.400;2023-02-10T04:01:34;99906.13;;;-8.81;86.60
9423;BME280;65863;49.506;10.400;2023-02-10T04:04:18;99900.25;;;-8.83;86.35
9423;BME280;65863;49.506;10.400;2023-02-10T04:07:02;99881.50;;;-8.92;86.19
9423;BME280;65863;49.506;10.400;2023-02-10T04:09:47;99932.06;;;-8.50;86.57
9423;BME280;65863;49.506;10.400;2023-02-10T04:12:31;99931.56;;;-8.62;86.40
9423;BME280;65863;49.506;10.400;2023-02-10T04:15:16;99904.47;;;-8.89;86.19
9423;BME280;65863;49.506;10.400;2023-02-10T04:17:59;99925.56;;;-8.83;86.57
9423;BME280;65863;49.506;10.400;2023-02-10T04:20:43;99913.59;;;-8.71;86.69
9423;BME280;65863;49.506;10.400;2023-02-10T04:23:28;99923.44;;;-8.59;86.98
9423;BME280;65863;49.506;10.400;2023-02-10T04:26:12;99907.09;;;-8.55;86.78
9423;BME280;65863;49.506;10.400;2023-02-10T04:28:56;99899.69;;;-8.58;86.91
9423;BME280;65863;49.506;10.400;2023-02-10T04:31:40;99936.06;;;-8.33;86.54
9423;BME280;65863;49.506;10.400;2023-02-10T04:34:24;99921.16;;;-8.50;86.68
9423;BME280;65863;49.506;10.400;2023-02-10T04:37:08;99927.34;;;-8.56;86.65
9423;BME280;65863;49.506;10.400;2023-02-10T04:39:52;99951.53;;;-8.44;86.77
9423;BME280;65863;49.506;10.400;2023-02-10T04:42:36;99960.44;;;-8.54;86.82
9423;BME280;65863;49.506;10.400;2023-02-10T04:45:20;99945.88;;;-8.73;86.70
9423;BME280;65863;49.506;10.400;2023-02-10T04:48:05;99899.66;;;-9.07;86.81
9423;BME280;65863;49.506;10.400;2023-02-10T04:50:50;99852.31;;;-9.36;87.01
9423;BME280;65863;49.506;10.400;2023-02-10T04:53:36;99921.84;;;-9.05;86.99
9423;BME280;65863;49.506;10.400;2023-02-10T04:56:21;99925.38;;;-9.01;87.16
9423;BME280;65863;49.506;10.400;2023-02-10T04:59:05;99925.22;;;-9.15;86.87
9423;BME280;65863;49.506;10.400;2023-02-10T05:01:49;99968.22;;;-8.94;86.76
9423;BME280;65863;49.506;10.400;2023-02-10T05:04:33;99978.78;;;-8.89;86.52
9423;BME280;65863;49.506;10.400;2023-02-10T05:07:17;99927.97;;;-9.11;86.82
9423;BME280;65863;49.506;10.400;2023-02-10T05:10:02;99914.13;;;-9.37;86.86
9423;BME280;65863;49.506;10.400;2023-02-10T05:12:46;99940.25;;;-9.28;86.58
9423;BME280;65863;49.506;10.400;2023-02-10T05:15:30;99979.94;;;-8.90;86.67
9423;BME280;65863;49.506;10.400;2023-02-10T05:18:14;99947.50;;;-9.40;86.62
9423;BME280;65863;49.506;10.400;2023-02-10T05:20:58;99974.88;;;-8.91;86.80
9423;BME280;65863;49.506;10.400;2023-02-10T05:23:43;99961.53;;;-9.00;86.51
9423;BME280;65863;49.506;10.400;2023-02-10T05:26:27;99984.75;;;-8.76;86.87
9423;BME280;65863;49.506;10.400;2023-02-10T05:29:11;99956.19;;;-8.93;86.93
9423;BME280;65863;49.506;10.400;2023-02-10T05:31:55;99958.75;;;-8.70;86.61
9423;BME280;65863;49.506;10.400;2023-02-10T05:34:39;99933.75;;;-8.79;87.01
9423;BME280;65863;49.506;10.400;2023-02-10T05:37:23;99936.84;;;-8.80;86.84
9423;BME280;65863;49.506;10.400;2023-02-10T05:40:07;99968.75;;;-8.81;86.76
9423;BME280;65863;49.506;10.400;2023-02-10T05:42:51;99876.34;;;-9.42;86.98
9423;BME280;65863;49.506;10.400;2023-02-10T05:45:35;99965.97;;;-8.85;87.27
9423;BME280;65863;49.506;10.400;2023-02-10T05:48:19;99985.34;;;-8.93;86.58
9423;BME280;65863;49.506;10.400;2023-02-10T05:51:04;100009.22;;;-8.79;86.90
9423;BME280;65863;49.506;10.400;2023-02-10T05:53:51;99990.31;;;-9.03;87.14
9423;BME280;65863;49.506;10.400;2023-02-10T05:56:35;99981.88;;;-8.90;86.99
9423;BME280;65863;49.506;10.400;2023-02-10T05:59:19;99981.53;;;-8.48;86.90
9423;BME280;65863;49.506;10.400;2023-02-10T06:02:03;99980.84;;;-8.30;87.13
9423;BME280;65863;49.506;10.400;2023-02-10T06:04:47;100006.78;;;-7.99;87.49
9423;BME280;65863;49.506;10.400;2023-02-10T06:07:31;99978.72;;;-8.03;87.30
9423;BME280;65863;49.506;10.400;2023-02-10T06:10:15;99977.69;;;-7.84;88.07
9423;BME280;65863;49.506;10.400;2023-02-10T06:12:59;99987.63;;;-7.47;87.44
9423;BME280;65863;49.506;10.400;2023-02-10T06:15:43;100004.97;;;-7.06;87.98
9423;BME280;65863;49.506;10.400;2023-02-10T06:18:28;99994.84;;;-6.99;88.59
9423;BME280;65863;49.506;10.400;2023-02-10T06:21:12;99999.56;;;-6.81;88.62
9423;BME280;65863;49.506;10.400;2023-02-10T06:23:56;99976.91;;;-7.00;88.22
9423;BME280;65863;49.506;10.400;2023-02-10T06:26:40;100007.00;;;-6.75;88.93
9423;BME280;65863;49.506;10.400;2023-02-10T06:29:24;99997.22;;;-6.79;88.49
9423;BME280;65863;49.506;10.400;2023-02-10T06:32:08;99999.56;;;-6.81;88.55
9423;BME280;65863;49.506;10.400;2023-02-10T06:34:52;100050.41;;;-6.44;88.42
9423;BME280;65863;49.506;10.400;2023-02-10T06:37:36;100026.97;;;-6.52;88.66
9423;BME280;65863;49.506;10.400;2023-02-10T06:40:20;100022.69;;;-6.46;88.65
9423;BME280;65863;49.506;10.400;2023-02-10T06:43:04;100043.34;;;-6.52;88.40
9423;BME280;65863;49.506;10.400;2023-02-10T06:45:53;100037.84;;;-6.74;88.59
9423;BME280;65863;49.506;10.400;2023-02-10T06:48:37;99997.88;;;-7.25;88.73
9423;BME280;65863;49.506;10.400;2023-02-10T06:51:21;100022.88;;;-7.13;88.60
9423;BME280;65863;49.506;10.400;2023-02-10T06:54:06;100016.66;;;-7.06;88.56
9423;BME280;65863;49.506;10.400;2023-02-10T06:56:50;100031.53;;;-6.93;88.38
9423;BME280;65863;49.506;10.400;2023-02-10T06:59:34;100010.75;;;-7.22;88.47
9423;BME280;65863;49.506;10.400;2023-02-10T07:02:18;100050.28;;;-6.87;88.44
9423;BME280;65863;49.506;10.400;2023-02-10T07:05:03;100053.06;;;-6.73;88.82
9423;BME280;65863;49.506;10.400;2023-02-10T07:07:49;100030.69;;;-7.11;88.79
9423;BME280;65863;49.506;10.400;2023-02-10T07:10:34;100062.78;;;-6.90;88.35
9423;BME280;65863;49.506;10.400;2023-02-10T07:13:19;100051.81;;;-6.94;88.71
9423;BME280;65863;49.506;10.400;2023-02-10T07:16:03;100033.84;;;-6.98;88.49
9423;BME280;65863;49.506;10.400;2023-02-10T07:18:48;100066.72;;;-6.69;89.03
9423;BME280;65863;49.506;10.400;2023-02-10T07:21:32;100040.94;;;-6.79;88.59
9423;BME280;65863;49.506;10.400;2023-02-10T07:24:16;100049.22;;;-6.54;88.73
9423;BME280;65863;49.506;10.400;2023-02-10T07:26:59;100010.53;;;-6.74;88.65
9423;BME280;65863;49.506;10.400;2023-02-10T07:29:44;100037.50;;;-6.44;88.54
9423;BME280;65863;49.506;10.400;2023-02-10T07:32:28;100005.13;;;-6.42;88.98
9423;BME280;65863;49.506;10.400;2023-02-10T07:35:12;100021.53;;;-6.20;89.00
9423;BME280;65863;49.506;10.400;2023-02-10T07:37:56;100044.16;;;-5.80;89.24
9423;BME280;65863;49.506;10.400;2023-02-10T07:40:40;100050.41;;;-5.79;89.20
9423;BME280;65863;49.506;10.400;2023-02-10T07:43:24;100059.00;;;-5.66;89.23
9423;BME280;65863;49.506;10.400;2023-02-10T07:46:21;100025.00;;;-5.80;89.21
9423;BME280;65863;49.506;10.400;2023-02-10T07:49:05;100028.88;;;-5.63;89.16
9423;BME280;65863;49.506;10.400;2023-02-10T07:51:49;100035.13;;;-5.44;89.10
9423;BME280;65863;49.506;10.400;2023-02-10T07:54:33;100034.28;;;-5.20;89.39
9423;BME280;65863;49.506;10.400;2023-02-10T07:57:17;100021.69;;;-5.03;89.10
9423;BME280;65863;49.506;10.400;2023-02-10T08:00:01;100029.72;;;-4.67;89.37
9423;BME280;65863;49.506;10.400;2023-02-10T08:02:46;100034.34;;;-4.53;89.21
9423;BME280;65863;49.506;10.400;2023-02-10T08:05:30;100027.53;;;-4.30;89.24
9423;BME280;65863;49.506;10.400;2023-02-10T08:08:14;100031.03;;;-4.22;89.20
9423;BME280;65863;49.506;10.400;2023-02-10T08:10:58;100040.94;;;-3.87;89.06
9423;BME280;65863;49.506;10.400;2023-02-10T08:13:43;100051.56;;;-3.47;89.14
9423;BME280;65863;49.506;10.400;2023-02-10T08:16:28;100075.56;;;-3.13;88.83
9423;BME280;65863;49.506;10.400;2023-02-10T08:19:12;100060.25;;;-3.14;88.48
9423;BME280;65863;49.506;10.400;2023-02-10T08:21:56;100052.63;;;-2.99;88.22
9423;BME280;65863;49.506;10.400;2023-02-10T08:24:40;100036.22;;;-2.75;88.08
9423;BME280;65863;49.506;10.400;2023-02-10T08:27:24;100051.13;;;-2.42;87.68
9423;BME280;65863;49.506;10.400;2023-02-10T08:30:08;100067.88;;;-2.05;87.38
9423;BME280;65863;49.506;10.400;2023-02-10T08:32:53;100073.91;;;-1.87;86.88
9423;BME280;65863;49.506;10.400;2023-02-10T08:35:38;100057.00;;;-1.65;86.25
9423;BME280;65863;49.506;10.400;2023-02-10T08:38:23;100076.94;;;-1.34;86.13
9423;BME280;65863;49.506;10.400;2023-02-10T08:41:07;100041.41;;;-1.52;85.17
9423;BME280;65863;49.506;10.400;2023-02-10T08:43:51;100050.97;;;-1.36;84.41
9423;BME280;65863;49.506;10.400;2023-02-10T08:46:35;100054.28;;;-1.01;83.83
9423;BME280;65863;49.506;10.400;2023-02-10T08:49:19;100044.72;;;-0.97;83.10
9423;BME280;65863;49.506;10.400;2023-02-10T08:52:03;100053.53;;;-0.65;82.37
9423;BME280;65863;49.506;10.400;2023-02-10T08:54:47;100079.44;;;-0.23;81.90
9423;BME280;65863;49.506;10.400;2023-02-10T08:57:31;100069.22;;;-0.26;80.85
9423;BME280;65863;49.506;10.400;2023-02-10T09:00:16;100085.25;;;0.16;80.42
9423;BME280;65863;49.506;10.400;2023-02-10T09:03:00;100044.69;;;0.13;79.33
9423;BME280;65863;49.506;10.400;2023-02-10T09:05:44;100086.56;;;0.74;78.56
9423;BME280;65863;49.506;10.400;2023-02-10T09:08:29;100078.84;;;0.52;77.32
9423;BME280;65863;49.506;10.400;2023-02-10T09:11:15;100098.00;;;0.59;76.03
9423;BME280;65863;49.506;10.400;2023-02-10T09:13:59;100070.59;;;0.36;74.94
9423;BME280;65863;49.506;10.400;2023-02-10T09:16:43;100083.69;;;0.31;74.21
9423;BME280;65863;49.506;10.400;2023-02-10T09:19:27;100057.09;;;0.21;74.01
9423;BME280;65863;49.506;10.400;2023-02-10T09:22:11;100095.75;;;0.71;73.52
9423;BME280;65863;49.506;10.400;2023-02-10T09:24:55;100108.78;;;0.70;73.06
9423;BME280;65863;49.506;10.400;2023-02-10T09:27:40;100109.31;;;0.65;72.74
9423;BME280;65863;49.506;10.400;2023-02-10T09:30:25;100087.69;;;0.76;72.58
9423;BME280;65863;49.506;10.400;2023-02-10T09:33:09;100088.38;;;1.10;72.40
9423;BME280;65863;49.506;10.400;2023-02-10T09:35:53;100082.41;;;1.11;72.18
9423;BME280;65863;49.506;10.400;2023-02-10T09:38:37;100069.47;;;1.08;71.75
9423;BME280;65863;49.506;10.400;2023-02-10T09:44:26;100105.34;;;1.80;71.16
9423;BME280;65863;49.506;10.400;2023-02-10T09:53:19;100121.25;;;2.66;69.29
9423;BME280;65863;49.506;10.400;2023-02-10T09:56:07;100096.44;;;2.49;68.56
9423;BME280;65863;49.506;10.400;2023-02-10T09:58:56;100110.16;;;3.01;67.51
9423;BME280;65863;49.506;10.400;2023-02-10T10:01:57;100117.19;;;2.92;66.75
9423;BME280;65863;49.506;10.400;2023-02-10T10:04:43;100116.41;;;2.92;66.00
9423;BME280;65863;49.506;10.400;2023-02-10T10:07:33;100112.50;;;2.67;65.32
9423;BME280;65863;49.506;10.400;2023-02-10T10:10:56;100094.44;;;2.85;65.67
9423;BME280;65863;49.506;10.400;2023-02-10T10:13:44;100120.75;;;3.37;65.27
9423;BME280;65863;49.506;10.400;2023-02-10T10:16:49;100085.13;;;3.14;64.75
9423;BME280;65863;49.506;10.400;2023-02-10T10:20:15;100136.69;;;3.68;64.31
9423;BME280;65863;49.506;10.400;2023-02-10T10:29:40;100135.41;;;3.16;62.18
9423;BME280;65863;49.506;10.400;2023-02-10T10:35:21;100135.94;;;3.23;63.33
9423;BME280;65863;49.506;10.400;2023-02-10T10:38:27;100110.03;;;3.49;63.51
9423;BME280;65863;49.506;10.400;2023-02-10T10:41:13;100113.75;;;4.18;63.51
9423;BME280;65863;49.506;10.400;2023-02-10T10:43:58;100105.53;;;4.64;62.72
9423;BME280;65863;49.506;10.400;2023-02-10T10:46:46;100113.84;;;5.57;61.74
9423;BME280;65863;49.506;10.400;2023-02-10T10:49:32;100108.22;;;5.75;60.20
9423;BME280;65863;49.506;10.400;2023-02-10T10:52:29;100116.91;;;5.68;58.81
9423;BME280;65863;49.506;10.400;2023-02-10T10:55:19;100119.59;;;5.53;58.32
9423;BME280;65863;49.506;10.400;2023-02-10T10:58:27;100116.00;;;5.62;58.26
9423;BME280;65863;49.506;10.400;2023-02-10T11:01:13;100098.56;;;6.04;58.26
9423;BME280;65863;49.506;10.400;2023-02-10T11:04:11;100075.03;;;5.86;57.09
9423;BME280;65863;49.506;10.400;2023-02-10T11:06:56;100088.09;;;6.23;56.81
9423;BME280;65863;49.506;10.400;2023-02-10T11:09:47;100075.50;;;6.28;56.21
9423;BME280;65863;49.506;10.400;2023-02-10T11:12:36;100073.75;;;6.06;55.95
9423;BME280;65863;49.506;10.400;2023-02-10T11:15:40;100052.53;;;6.09;55.68
9423;BME280;65863;49.506;10.400;2023-02-10T11:18:25;100017.81;;;5.67;55.52
9423;BME280;65863;49.506;10.400;2023-02-10T11:21:10;100081.56;;;5.83;55.21
9423;BME280;65863;49.506;10.400;2023-02-10T11:23:54;100089.50;;;6.18;56.39
9423;BME280;65863;49.506;10.400;2023-02-10T11:26:39;100063.69;;;6.09;55.96
9423;BME280;65863;49.506;10.400;2023-02-10T11:29:24;100065.66;;;5.65;55.02
9423;BME280;65863;49.506;10.400;2023-02-10T11:32:18;100074.50;;;5.73;55.76
9423;BME280;65863;49.506;10.400;2023-02-10T11:35:04;100092.97;;;5.95;56.39
9423;BME280;65863;49.506;10.400;2023-02-10T11:37:53;100051.84;;;5.38;56.37
9423;BME280;65863;49.506;10.400;2023-02-10T11:40:59;100088.25;;;5.06;56.88
9423;BME280;65863;49.506;10.400;2023-02-10T11:43:46;100073.25;;;4.85;57.84
9423;BME280;65863;49.506;10.400;2023-02-10T11:46:30;100073.25;;;4.85;58.40
9423;BME280;65863;49.506;10.400;2023-02-10T11:49:17;100084.50;;;5.00;58.61
9423;BME280;65863;49.506;10.400;2023-02-10T11:52:03;100034.25;;;4.94;58.55
9423;BME280;65863;49.506;10.400;2023-02-10T11:54:49;100074.28;;;5.15;58.54
9423;BME280;65863;49.506;10.400;2023-02-10T12:00:52;100091.13;;;5.49;58.15
9423;BME280;65863;49.506;10.400;2023-02-10T12:04:00;100081.06;;;5.42;57.54
9423;BME280;65863;49.506;10.400;2023-02-10T12:07:07;100064.84;;;5.13;57.12
9423;BME280;65863;49.506;10.400;2023-02-10T12:16:12;100070.59;;;4.81;57.82
9423;BME280;65863;49.506;10.400;2023-02-10T12:19:08;100037.03;;;4.39;58.39
9423;BME280;65863;49.506;10.400;2023-02-10T12:25:51;100062.44;;;4.78;59.70
9423;BME280;65863;49.506;10.400;2023-02-10T12:29:13;100032.28;;;4.76;59.79
9423;BME280;65863;49.506;10.400;2023-02-10T12:32:21;100058.78;;;5.33;59.24
9423;BME280;65863;49.506;10.400;2023-02-10T12:38:41;100065.84;;;5.62;57.92
9423;BME280;65863;49.506;10.400;2023-02-10T12:53:35;100057.44;;;5.19;56.44
9423;BME280;65863;49.506;10.400;2023-02-10T12:56:25;100049.56;;;5.17;56.71
9423;BME280;65863;49.506;10.400;2023-02-10T12:59:22;99975.53;;;4.64;56.91
9423;BME280;65863;49.506;10.400;2023-02-10T13:02:16;100047.38;;;5.22;57.17
9423;BME280;65863;49.506;10.400;2023-02-10T13:05:07;100027.59;;;5.10;56.94
9423;BME280;65863;49.506;10.400;2023-02-10T13:07:55;100022.97;;;4.98;57.21
9423;BME280;65863;49.506;10.400;2023-02-10T13:10:51;100048.44;;;5.24;57.49
9423;BME280;65863;49.506;10.400;2023-02-10T13:13:37;99999.78;;;4.73;57.97
9423;BME280;65863;49.506;10.400;2023-02-10T13:16:30;100001.00;;;5.00;58.12
9423;BME280;65863;49.506;10.400;2023-02-10T13:22:45;100009.63;;;5.21;57.90
9423;BME280;65863;49.506;10.400;2023-02-10T13:25:44;100011.34;;;5.18;57.67
9423;BME280;65863;49.506;10.400;2023-02-10T13:28:39;100039.34;;;6.09;57.43
9423;BME280;65863;49.506;10.400;2023-02-10T13:32:09;100038.81;;;5.86;56.09
9423;BME280;65863;49.506;10.400;2023-02-10T13:34:59;99969.63;;;5.42;56.14
9423;BME280;65863;49.506;10.400;2023-02-10T13:37:50;100019.22;;;5.72;55.69
9423;BME280;65863;49.506;10.400;2023-02-10T13:43:32;99966.31;;;5.20;55.90
9423;BME280;65863;49.506;10.400;2023-02-10T13:46:31;99993.53;;;5.15;56.16
9423;BME280;65863;49.506;10.400;2023-02-10T13:49:17;100031.88;;;5.82;56.81
9423;BME280;65863;49.506;10.400;2023-02-10T13:52:12;99985.47;;;5.69;56.16
9423;BME280;65863;49.506;10.400;2023-02-10T13:55:24;100009.97;;;5.99;55.89
9423;BME280;65863;49.506;10.400;2023-02-10T14:00:56;100005.81;;;5.85;54.90
9423;BME280;65863;49.506;10.400;2023-02-10T14:03:40;99967.16;;;5.78;55.34
9423;BME280;65863;49.506;10.400;2023-02-10T14:06:39;99851.78;;;4.32;55.38
9423;BME280;65863;49.506;10.400;2023-02-10T14:12:27;100024.81;;;4.92;57.29
9423;BME280;65863;49.506;10.400;2023-02-10T14:15:21;100023.56;;;5.21;58.36
9423;BME280;65863;49.506;10.400;2023-02-10T14:18:24;100023.63;;;5.88;58.37
9423;BME280;65863;49.506;10.400;2023-02-10T14:21:12;99979.94;;;5.60;57.78
9423;BME280;65863;49.506;10.400;2023-02-10T14:23:57;99983.25;;;5.83;57.71
9423;BME280;65863;49.506;10.400;2023-02-10T14:26:44;99981.31;;;6.23;57.52
9423;BME280;65863;49.506;10.400;2023-02-10T14:29:33;100013.31;;;6.76;57.02
9423;BME280;65863;49.506;10.400;2023-02-10T14:32:18;100020.16;;;7.04;56.98
9423;BME280;65863;49.506;10.400;2023-02-10T14:35:04;99993.88;;;6.66;55.75
9423;BME280;65863;49.506;10.400;2023-02-10T14:37:54;99987.97;;;6.49;55.12
9423;BME280;65863;49.506;10.400;2023-02-10T14:40:43;99990.31;;;6.42;55.09
9423;BME280;65863;49.506;10.400;2023-02-10T14:43:30;99988.84;;;6.31;55.43
9423;BME280;65863;49.506;10.400;2023-02-10T14:46:24;100017.25;;;6.45;55.76
9423;BME280;65863;49.506;10.400;2023-02-10T14:49:11;99998.41;;;6.15;55.95
9423;BME280;65863;49.506;10.400;2023-02-10T14:51:59;99985.16;;;6.01;56.04
9423;BME280;65863;49.506;10.400;2023-02-10T14:54:50;99971.63;;;5.84;56.24
9423;BME280;65863;49.506;10.400;2023-02-10T14:57:34;99991.94;;;6.09;56.35
9423;BME280;65863;49.506;10.400;2023-02-10T15:00:18;100013.00;;;6.34;56.68
9423;BME280;65863;49.506;10.400;2023-02-10T15:03:03;99964.94;;;5.91;56.28
9423;BME280;65863;49.506;10.400;2023-02-10T15:05:50;99932.31;;;5.49;56.53
9423;BME280;65863;49.506;10.400;2023-02-10T15:08:37;100000.63;;;5.26;57.08
9423;BME280;65863;49.506;10.400;2023-02-10T15:11:28;99997.44;;;5.61;58.38
9423;BME280;65863;49.506;10.400;2023-02-10T15:14:43;99974.78;;;5.68;58.04
9423;BME280;65863;49.506;10.400;2023-02-10T15:17:52;99972.59;;;5.72;58.28
9423;BME280;65863;49.506;10.400;2023-02-10T15:20:50;99833.78;;;4.70;57.94
9423;BME280;65863;49.506;10.400;2023-02-10T15:23:34;99974.59;;;5.38;58.13
9423;BME280;65863;49.506;10.400;2023-02-10T15:26:22;99949.22;;;4.84;58.33
9423;BME280;65863;49.506;10.400;2023-02-10T15:29:16;99985.50;;;5.17;59.57
9423;BME280;65863;49.506;10.400;2023-02-10T15:32:00;99986.75;;;5.07;59.31
9423;BME280;65863;49.506;10.400;2023-02-10T15:34:47;99984.91;;;5.04;59.48
9423;BME280;65863;49.506;10.400;2023-02-10T15:37:33;99978.75;;;4.81;59.63
9423;BME280;65863;49.506;10.400;2023-02-10T15:40:26;99971.38;;;4.60;59.97
9423;BME280;65863;49.506;10.400;2023-02-10T15:43:30;99993.31;;;4.58;60.37
9423;BME280;65863;49.506;10.400;2023-02-10T15:46:22;99979.84;;;4.38;60.77
9423;BME280;65863;49.506;10.400;2023-02-10T15:49:12;100002.72;;;4.42;60.74
9423;BME280;65863;49.506;10.400;2023-02-10T15:51:56;99959.72;;;3.87;60.99
9423;BME280;65863;49.506;10.400;2023-02-10T15:54:40;99994.59;;;3.88;61.64
9423;BME280;65863;49.506;10.400;2023-02-10T15:57:25;99994.72;;;3.75;62.25
9423;BME280;65863;49.506;10.400;2023-02-10T16:00:19;99977.34;;;3.53;62.70